sensor_id;sensor_type;location;lat;lon;timestamp;P1;durP1;ratioP1;P2;durP2;ratioP2
69979;SDS011;57318;56.232;43.944;2023-08-01T00:01:02;4.97;;;3.92;;
69979;SDS011;57318;56.232;43.944;2023-08-01T00:03:28;5.50;;;4.50;;
69979;SDS011;57318;56.232;43.944;2023-08-01T00:05:54;5.43;;;4.10;;
69979;SDS011;57318;56.232;43.944;2023-08-01T00:08:20;6.32;;;4.18;;
69979;SDS011;57318;56.232;43.944;2023-08-01T00:10:46;7.70;;;4.10;;
69979;SDS011;57318;56.232;43.944;2023-08-01T00:13:12;4.80;;;4.30;;
69979;SDS011;57318;56.232;43.944;2023-08-01T00:15:38;5.20;;;4.03;;
69979;SDS011;57318;56.232;43.944;2023-08-01T00:18:04;6.53;;;4.43;;
69979;SDS011;57318;56.232;43.944;2023-08-01T00:20:29;4.83;;;4.30;;
69979;SDS011;57318;56.232;43.944;2023-08-01T00:22:55;6.25;;;4.28;;
69979;SDS011;57318;56.232;43.944;2023-08-01T00:25:21;9.02;;;4.53;;
69979;SDS011;57318;56.232;43.944;2023-08-01T00:27:47;6.17;;;4.90;;
69979;SDS011;57318;56.232;43.944;2023-08-01T00:30:13;8.07;;;4.90;;
69979;SDS011;57318;56.232;43.944;2023-08-01T00:32:38;6.70;;;4.40;;
69979;SDS011;57318;56.232;43.944;2023-08-01T00:35:04;9.13;;;4.90;;
69979;SDS011;57318;56.232;43.944;2023-08-01T00:37:31;8.60;;;5.32;;
69979;SDS011;57318;56.232;43.944;2023-08-01T00:39:57;7.43;;;4.97;;
69979;SDS011;57318;56.232;43.944;2023-08-01T00:42:23;7.43;;;5.20;;
69979;SDS011;57318;56.232;43.944;2023-08-01T00:44:48;7.47;;;5.10;;
69979;SDS011;57318;56.232;43.944;2023-08-01T00:47:15;8.13;;;5.32;;
69979;SDS011;57318;56.232;43.944;2023-08-01T00:49:43;10.32;;;5.13;;
69979;SDS011;57318;56.232;43.944;2023-08-01T00:52:09;11.43;;;5.63;;
69979;SDS011;57318;56.232;43.944;2023-08-01T00:54:35;7.65;;;5.78;;
69979;SDS011;57318;56.232;43.944;2023-08-01T00:59:31;7.32;;;5.47;;
69979;SDS011;57318;56.232;43.944;2023-08-01T01:01:58;9.73;;;6.22;;
69979;SDS011;57318;56.232;43.944;2023-08-01T01:04:25;8.60;;;6.20;;
69979;SDS011;57318;56.232;43.944;2023-08-01T01:07:02;9.23;;;6.35;;
69979;SDS011;57318;56.232;43.944;2023-08-01T01:09:31;8.43;;;6.75;;
69979;SDS011;57318;56.232;43.944;2023-08-01T01:11:57;12.30;;;7.53;;
69979;SDS011;57318;56.232;43.944;2023-08-01T01:14:29;10.57;;;6.80;;
69979;SDS011;57318;56.232;43.944;2023-08-01T01:16:55;10.23;;;7.30;;
69979;SDS011;57318;56.232;43.944;2023-08-01T01:19:21;16.88;;;8.38;;
69979;SDS011;57318;56.232;43.944;2023-08-01T01:21:47;13.23;;;7.27;;
69979;SDS011;57318;56.232;43.944;2023-08-01T01:24:14;14.48;;;8.73;;
69979;SDS011;57318;56.232;43.944;2023-08-01T01:26:41;14.55;;;9.00;;
69979;SDS011;57318;56.232;43.944;2023-08-01T01:29:08;16.27;;;8.77;;
69979;SDS011;57318;56.232;43.944;2023-08-01T01:31:35;12.95;;;8.70;;
69979;SDS011;57318;56.232;43.944;2023-08-01T01:34:01;15.60;;;9.93;;
69979;SDS011;57318;56.232;43.944;2023-08-01T01:36:29;13.57;;;8.98;;
69979;SDS011;57318;56.232;43.944;2023-08-01T01:38:55;11.95;;;8.20;;
69979;SDS011;57318;56.232;43.944;2023-08-01T01:41:21;11.50;;;8.25;;
69979;SDS011;57318;56.232;43.944;2023-08-01T01:46:13;13.20;;;8.40;;
69979;SDS011;57318;56.232;43.944;2023-08-01T01:48:39;14.40;;;7.83;;
69979;SDS011;57318;56.232;43.944;2023-08-01T01:51:04;11.10;;;8.30;;
69979;SDS011;57318;56.232;43.944;2023-08-01T01:53:30;13.97;;;8.60;;
69979;SDS011;57318;56.232;43.944;2023-08-01T01:55:55;14.87;;;8.37;;
69979;SDS011;57318;56.232;43.944;2023-08-01T01:58:21;14.53;;;9.03;;
69979;SDS011;57318;56.232;43.944;2023-08-01T02:00:48;16.57;;;9.37;;
69979;SDS011;57318;56.232;43.944;2023-08-01T02:03:14;19.45;;;9.75;;
69979;SDS011;57318;56.232;43.944;2023-08-01T02:05:40;18.70;;;9.50;;
69979;SDS011;57318;56.232;43.944;2023-08-01T02:08:06;14.60;;;9.25;;
69979;SDS011;57318;56.232;43.944;2023-08-01T02:10:32;16.15;;;9.48;;
69979;SDS011;57318;56.232;43.944;2023-08-01T02:12:58;11.93;;;8.20;;
69979;SDS011;57318;56.232;43.944;2023-08-01T02:15:24;13.30;;;7.78;;
69979;SDS011;57318;56.232;43.944;2023-08-01T02:17:50;12.05;;;7.82;;
69979;SDS011;57318;56.232;43.944;2023-08-01T02:20:16;13.93;;;7.93;;
69979;SDS011;57318;56.232;43.944;2023-08-01T02:22:42;14.32;;;7.75;;
69979;SDS011;57318;56.232;43.944;2023-08-01T02:25:11;12.20;;;7.90;;
69979;SDS011;57318;56.232;43.944;2023-08-01T02:27:37;10.88;;;8.13;;
69979;SDS011;57318;56.232;43.944;2023-08-01T02:30:03;12.68;;;8.05;;
69979;SDS011;57318;56.232;43.944;2023-08-01T02:32:32;11.55;;;7.70;;
69979;SDS011;57318;56.232;43.944;2023-08-01T02:34:57;14.63;;;7.37;;
69979;SDS011;57318;56.232;43.944;2023-08-01T02:37:23;13.37;;;7.67;;
69979;SDS011;57318;56.232;43.944;2023-08-01T02:39:49;18.52;;;8.30;;
69979;SDS011;57318;56.232;43.944;2023-08-01T02:42:14;15.13;;;8.67;;
69979;SDS011;57318;56.232;43.944;2023-08-01T02:44:40;14.27;;;8.30;;
69979;SDS011;57318;56.232;43.944;2023-08-01T02:47:06;13.50;;;8.93;;
69979;SDS011;57318;56.232;43.944;2023-08-01T02:49:32;12.47;;;8.60;;
69979;SDS011;57318;56.232;43.944;2023-08-01T02:51:57;10.33;;;7.47;;
69979;SDS011;57318;56.232;43.944;2023-08-01T02:54:24;14.77;;;8.40;;
69979;SDS011;57318;56.232;43.944;2023-08-01T02:56:50;13.90;;;8.13;;
69979;SDS011;57318;56.232;43.944;2023-08-01T02:59:16;11.68;;;8.35;;
69979;SDS011;57318;56.232;43.944;2023-08-01T03:01:43;13.50;;;8.50;;
69979;SDS011;57318;56.232;43.944;2023-08-01T03:04:09;12.50;;;9.00;;
69979;SDS011;57318;56.232;43.944;2023-08-01T03:06:38;12.70;;;8.60;;
69979;SDS011;57318;56.232;43.944;2023-08-01T03:09:04;14.05;;;9.07;;
69979;SDS011;57318;56.232;43.944;2023-08-01T03:11:34;13.25;;;8.82;;
69979;SDS011;57318;56.232;43.944;2023-08-01T03:14:02;12.38;;;8.88;;
69979;SDS011;57318;56.232;43.944;2023-08-01T03:16:30;14.77;;;9.27;;
69979;SDS011;57318;56.232;43.944;2023-08-01T03:18:56;17.52;;;9.05;;
69979;SDS011;57318;56.232;43.944;2023-08-01T03:21:22;12.85;;;9.75;;
69979;SDS011;57318;56.232;43.944;2023-08-01T03:23:48;16.27;;;9.67;;
69979;SDS011;57318;56.232;43.944;2023-08-01T03:26:13;19.30;;;9.97;;
69979;SDS011;57318;56.232;43.944;2023-08-01T03:28:40;14.52;;;10.30;;
69979;SDS011;57318;56.232;43.944;2023-08-01T03:31:06;15.33;;;10.30;;
69979;SDS011;57318;56.232;43.944;2023-08-01T03:33:32;15.77;;;10.63;;
69979;SDS011;57318;56.232;43.944;2023-08-01T03:35:59;19.08;;;10.80;;
69979;SDS011;57318;56.232;43.944;2023-08-01T03:38:24;14.57;;;9.97;;
69979;SDS011;57318;56.232;43.944;2023-08-01T03:40:50;15.37;;;9.50;;
69979;SDS011;57318;56.232;43.944;2023-08-01T03:43:16;16.47;;;10.40;;
69979;SDS011;57318;56.232;43.944;2023-08-01T03:45:42;13.73;;;9.90;;
69979;SDS011;57318;56.232;43.944;2023-08-01T03:48:07;11.60;;;9.13;;
69979;SDS011;57318;56.232;43.944;2023-08-01T03:50:33;16.83;;;10.13;;
69979;SDS011;57318;56.232;43.944;2023-08-01T03:52:59;14.63;;;9.60;;
69979;SDS011;57318;56.232;43.944;2023-08-01T03:55:24;12.07;;;9.47;;
69979;SDS011;57318;56.232;43.944;2023-08-01T03:57:50;17.10;;;10.03;;
69979;SDS011;57318;56.232;43.944;2023-08-01T04:00:16;17.53;;;10.00;;
69979;SDS011;57318;56.232;43.944;2023-08-01T04:02:44;14.38;;;9.43;;
69979;SDS011;57318;56.232;43.944;2023-08-01T04:05:10;21.48;;;11.13;;
69979;SDS011;57318;56.232;43.944;2023-08-01T04:07:38;14.50;;;9.40;;
69979;SDS011;57318;56.232;43.944;2023-08-01T04:10:04;12.50;;;9.43;;
69979;SDS011;57318;56.232;43.944;2023-08-01T04:12:31;17.67;;;9.70;;
69979;SDS011;57318;56.232;43.944;2023-08-01T04:14:58;12.32;;;8.68;;
69979;SDS011;57318;56.232;43.944;2023-08-01T04:17:24;12.98;;;10.23;;
69979;SDS011;57318;56.232;43.944;2023-08-01T04:19:49;18.17;;;12.00;;
69979;SDS011;57318;56.232;43.944;2023-08-01T04:22:15;35.37;;;24.63;;
69979;SDS011;57318;56.232;43.944;2023-08-01T04:24:41;23.37;;;15.90;;
69979;SDS011;57318;56.232;43.944;2023-08-01T04:27:07;27.77;;;19.83;;
69979;SDS011;57318;56.232;43.944;2023-08-01T04:29:33;33.73;;;24.07;;
69979;SDS011;57318;56.232;43.944;2023-08-01T04:32:00;34.50;;;23.20;;
69979;SDS011;57318;56.232;43.944;2023-08-01T04:34:25;37.57;;;27.70;;
69979;SDS011;57318;56.232;43.944;2023-08-01T04:36:51;33.20;;;23.02;;
69979;SDS011;57318;56.232;43.944;2023-08-01T04:39:17;25.33;;;19.03;;
69979;SDS011;57318;56.232;43.944;2023-08-01T04:41:43;30.75;;;18.75;;
69979;SDS011;57318;56.232;43.944;2023-08-01T04:44:08;25.23;;;17.10;;
69979;SDS011;57318;56.232;43.944;2023-08-01T04:46:34;22.47;;;14.00;;
69979;SDS011;57318;56.232;43.944;2023-08-01T04:49:00;17.70;;;11.57;;
69979;SDS011;57318;56.232;43.944;2023-08-01T04:51:26;16.37;;;10.47;;
69979;SDS011;57318;56.232;43.944;2023-08-01T04:53:51;15.47;;;10.10;;
69979;SDS011;57318;56.232;43.944;2023-08-01T04:56:17;16.67;;;10.80;;
69979;SDS011;57318;56.232;43.944;2023-08-01T04:58:43;19.10;;;10.90;;
69979;SDS011;57318;56.232;43.944;2023-08-01T05:01:09;16.37;;;10.20;;
69979;SDS011;57318;56.232;43.944;2023-08-01T05:03:34;18.55;;;10.80;;
69979;SDS011;57318;56.232;43.944;2023-08-01T05:06:00;17.03;;;11.17;;
69979;SDS011;57318;56.232;43.944;2023-08-01T05:08:26;18.33;;;9.93;;
69979;SDS011;57318;56.232;43.944;2023-08-01T05:10:52;16.43;;;10.00;;
69979;SDS011;57318;56.232;43.944;2023-08-01T05:13:18;13.83;;;9.23;;
69979;SDS011;57318;56.232;43.944;2023-08-01T05:15:44;16.92;;;10.23;;
69979;SDS011;57318;56.232;43.944;2023-08-01T05:18:16;19.70;;;10.80;;
69979;SDS011;57318;56.232;43.944;2023-08-01T05:20:42;18.88;;;10.52;;
69979;SDS011;57318;56.232;43.944;2023-08-01T05:23:09;19.92;;;12.10;;
69979;SDS011;57318;56.232;43.944;2023-08-01T05:25:35;18.33;;;10.95;;
69979;SDS011;57318;56.232;43.944;2023-08-01T05:28:00;23.27;;;13.68;;
69979;SDS011;57318;56.232;43.944;2023-08-01T05:30:26;29.52;;;14.18;;
69979;SDS011;57318;56.232;43.944;2023-08-01T05:32:52;24.90;;;13.47;;
69979;SDS011;57318;56.232;43.944;2023-08-01T05:35:19;19.38;;;11.95;;
69979;SDS011;57318;56.232;43.944;2023-08-01T05:37:46;25.00;;;11.93;;
69979;SDS011;57318;56.232;43.944;2023-08-01T05:40:12;19.97;;;11.50;;
69979;SDS011;57318;56.232;43.944;2023-08-01T05:42:38;24.23;;;11.82;;
69979;SDS011;57318;56.232;43.944;2023-08-01T05:45:04;20.37;;;10.97;;
69979;SDS011;57318;56.232;43.944;2023-08-01T05:47:30;12.63;;;8.50;;
69979;SDS011;57318;56.232;43.944;2023-08-01T05:49:56;20.97;;;9.27;;
69979;SDS011;57318;56.232;43.944;2023-08-01T05:52:24;19.93;;;9.80;;
69979;SDS011;57318;56.232;43.944;2023-08-01T05:54:50;16.70;;;9.18;;
69979;SDS011;57318;56.232;43.944;2023-08-01T05:57:16;18.20;;;8.73;;
69979;SDS011;57318;56.232;43.944;2023-08-01T05:59:41;14.20;;;7.60;;
69979;SDS011;57318;56.232;43.944;2023-08-01T06:02:07;14.67;;;7.63;;
69979;SDS011;57318;56.232;43.944;2023-08-01T06:04:33;14.33;;;7.47;;
69979;SDS011;57318;56.232;43.944;2023-08-01T06:06:59;16.43;;;8.97;;
69979;SDS011;57318;56.232;43.944;2023-08-01T06:09:24;16.60;;;9.30;;
69979;SDS011;57318;56.232;43.944;2023-08-01T06:11:50;19.80;;;8.80;;
69979;SDS011;57318;56.232;43.944;2023-08-01T06:14:16;17.13;;;8.90;;
69979;SDS011;57318;56.232;43.944;2023-08-01T06:16:42;12.48;;;7.50;;
69979;SDS011;57318;56.232;43.944;2023-08-01T06:19:08;19.95;;;8.80;;
69979;SDS011;57318;56.232;43.944;2023-08-01T06:21:34;11.40;;;7.70;;
69979;SDS011;57318;56.232;43.944;2023-08-01T06:24:00;16.88;;;8.68;;
69979;SDS011;57318;56.232;43.944;2023-08-01T06:26:25;14.52;;;8.60;;
69979;SDS011;57318;56.232;43.944;2023-08-01T06:28:51;15.38;;;8.45;;
69979;SDS011;57318;56.232;43.944;2023-08-01T06:31:18;22.15;;;8.63;;
69979;SDS011;57318;56.232;43.944;2023-08-01T06:33:47;14.02;;;8.30;;
69979;SDS011;57318;56.232;43.944;2023-08-01T06:36:13;15.57;;;8.60;;
69979;SDS011;57318;56.232;43.944;2023-08-01T06:38:39;13.80;;;8.25;;
69979;SDS011;57318;56.232;43.944;2023-08-01T06:41:05;10.70;;;7.07;;
69979;SDS011;57318;56.232;43.944;2023-08-01T06:43:30;11.63;;;6.53;;
69979;SDS011;57318;56.232;43.944;2023-08-01T06:45:56;12.63;;;7.95;;
69979;SDS011;57318;56.232;43.944;2023-08-01T06:48:22;11.50;;;6.60;;
69979;SDS011;57318;56.232;43.944;2023-08-01T06:50:47;11.23;;;6.13;;
69979;SDS011;57318;56.232;43.944;2023-08-01T06:53:13;8.25;;;6.70;;
69979;SDS011;57318;56.232;43.944;2023-08-01T06:58:05;10.77;;;6.22;;
69979;SDS011;57318;56.232;43.944;2023-08-01T07:00:31;15.45;;;9.35;;
69979;SDS011;57318;56.232;43.944;2023-08-01T07:02:57;11.65;;;7.65;;
69979;SDS011;57318;56.232;43.944;2023-08-01T07:05:23;6.55;;;5.60;;
69979;SDS011;57318;56.232;43.944;2023-08-01T07:07:49;6.00;;;4.63;;
69979;SDS011;57318;56.232;43.944;2023-08-01T07:10:15;4.97;;;4.47;;
69979;SDS011;57318;56.232;43.944;2023-08-01T07:12:41;7.55;;;4.18;;
69979;SDS011;57318;56.232;43.944;2023-08-01T07:15:07;9.90;;;4.20;;
69979;SDS011;57318;56.232;43.944;2023-08-01T07:17:34;8.82;;;4.32;;
69979;SDS011;57318;56.232;43.944;2023-08-01T07:20:00;6.15;;;3.80;;
69979;SDS011;57318;56.232;43.944;2023-08-01T07:22:25;3.70;;;3.40;;
69979;SDS011;57318;56.232;43.944;2023-08-01T07:24:54;3.70;;;3.40;;
69979;SDS011;57318;56.232;43.944;2023-08-01T07:27:20;4.13;;;3.72;;
69979;SDS011;57318;56.232;43.944;2023-08-01T07:29:46;4.00;;;3.70;;
69979;SDS011;57318;56.232;43.944;2023-08-01T07:32:13;5.03;;;3.85;;
69979;SDS011;57318;56.232;43.944;2023-08-01T07:34:40;5.72;;;4.45;;
69979;SDS011;57318;56.232;43.944;2023-08-01T07:37:05;6.18;;;4.32;;
69979;SDS011;57318;56.232;43.944;2023-08-01T07:39:32;4.32;;;3.63;;
69979;SDS011;57318;56.232;43.944;2023-08-01T07:42:00;4.93;;;3.78;;
69979;SDS011;57318;56.232;43.944;2023-08-01T07:44:26;5.65;;;3.80;;
69979;SDS011;57318;56.232;43.944;2023-08-01T07:46:51;6.07;;;3.40;;
69979;SDS011;57318;56.232;43.944;2023-08-01T07:49:17;3.80;;;3.47;;
69979;SDS011;57318;56.232;43.944;2023-08-01T07:51:43;14.32;;;4.15;;
69979;SDS011;57318;56.232;43.944;2023-08-01T07:54:09;4.65;;;3.60;;
69979;SDS011;57318;56.232;43.944;2023-08-01T07:56:35;7.03;;;5.18;;
69979;SDS011;57318;56.232;43.944;2023-08-01T07:59:01;4.28;;;3.70;;
69979;SDS011;57318;56.232;43.944;2023-08-01T08:01:27;4.43;;;3.20;;
69979;SDS011;57318;56.232;43.944;2023-08-01T08:03:52;5.07;;;3.30;;
69979;SDS011;57318;56.232;43.944;2023-08-01T08:06:18;7.03;;;3.75;;
69979;SDS011;57318;56.232;43.944;2023-08-01T08:08:46;4.68;;;3.50;;
69979;SDS011;57318;56.232;43.944;2023-08-01T08:11:12;4.13;;;3.80;;
69979;SDS011;57318;56.232;43.944;2023-08-01T08:13:37;8.30;;;4.20;;
69979;SDS011;57318;56.232;43.944;2023-08-01T08:16:04;5.38;;;3.88;;
69979;SDS011;57318;56.232;43.944;2023-08-01T08:18:31;13.88;;;4.00;;
69979;SDS011;57318;56.232;43.944;2023-08-01T08:20:57;6.35;;;3.85;;
69979;SDS011;57318;56.232;43.944;2023-08-01T08:23:23;4.88;;;3.70;;
69979;SDS011;57318;56.232;43.944;2023-08-01T08:25:48;6.45;;;3.78;;
69979;SDS011;57318;56.232;43.944;2023-08-01T08:28:16;11.15;;;4.03;;
69979;SDS011;57318;56.232;43.944;2023-08-01T08:30:52;4.03;;;3.72;;
69979;SDS011;57318;56.232;43.944;2023-08-01T08:33:21;4.00;;;3.70;;
69979;SDS011;57318;56.232;43.944;2023-08-01T08:35:47;10.70;;;4.28;;
69979;SDS011;57318;56.232;43.944;2023-08-01T08:38:13;4.70;;;3.95;;
69979;SDS011;57318;56.232;43.944;2023-08-01T08:40:40;5.90;;;4.88;;
69979;SDS011;57318;56.232;43.944;2023-08-01T08:43:11;5.05;;;4.53;;
69979;SDS011;57318;56.232;43.944;2023-08-01T08:45:37;14.43;;;5.07;;
69979;SDS011;57318;56.232;43.944;2023-08-01T08:48:12;6.53;;;4.15;;
69979;SDS011;57318;56.232;43.944;2023-08-01T08:50:42;6.05;;;5.35;;
69979;SDS011;57318;56.232;43.944;2023-08-01T08:53:10;6.68;;;4.90;;
69979;SDS011;57318;56.232;43.944;2023-08-01T08:55:39;5.20;;;4.70;;
69979;SDS011;57318;56.232;43.944;2023-08-01T08:58:05;4.40;;;4.00;;
69979;SDS011;57318;56.232;43.944;2023-08-01T09:00:31;9.43;;;4.00;;
69979;SDS011;57318;56.232;43.944;2023-08-01T09:02:57;4.63;;;3.70;;
69979;SDS011;57318;56.232;43.944;2023-08-01T09:05:24;8.68;;;4.30;;
69979;SDS011;57318;56.232;43.944;2023-08-01T09:07:55;6.28;;;4.00;;
69979;SDS011;57318;56.232;43.944;2023-08-01T09:10:22;8.40;;;4.00;;
69979;SDS011;57318;56.232;43.944;2023-08-01T09:12:48;5.60;;;3.55;;
69979;SDS011;57318;56.232;43.944;2023-08-01T09:15:14;4.63;;;3.53;;
69979;SDS011;57318;56.232;43.944;2023-08-01T09:17:50;5.18;;;3.30;;
69979;SDS011;57318;56.232;43.944;2023-08-01T09:20:17;6.45;;;3.38;;
69979;SDS011;57318;56.232;43.944;2023-08-01T09:22:43;3.53;;;3.22;;
69979;SDS011;57318;56.232;43.944;2023-08-01T09:25:10;5.20;;;3.58;;
69979;SDS011;57318;56.232;43.944;2023-08-01T09:27:37;5.80;;;4.00;;
69979;SDS011;57318;56.232;43.944;2023-08-01T09:30:09;4.85;;;3.80;;
69979;SDS011;57318;56.232;43.944;2023-08-01T09:32:39;8.97;;;3.87;;
69979;SDS011;57318;56.232;43.944;2023-08-01T09:35:05;6.97;;;3.92;;
69979;SDS011;57318;56.232;43.944;2023-08-01T09:37:40;6.18;;;3.80;;
69979;SDS011;57318;56.232;43.944;2023-08-01T09:40:08;5.47;;;3.90;;
69979;SDS011;57318;56.232;43.944;2023-08-01T09:42:45;9.52;;;4.28;;
69979;SDS011;57318;56.232;43.944;2023-08-01T09:45:14;4.68;;;3.80;;
69979;SDS011;57318;56.232;43.944;2023-08-01T09:47:44;6.13;;;4.50;;
69979;SDS011;57318;56.232;43.944;2023-08-01T09:50:11;6.38;;;3.90;;
69979;SDS011;57318;56.232;43.944;2023-08-01T09:52:45;5.10;;;3.88;;
69979;SDS011;57318;56.232;43.944;2023-08-01T09:55:18;6.30;;;4.25;;
69979;SDS011;57318;56.232;43.944;2023-08-01T09:57:51;5.35;;;4.13;;
69979;SDS011;57318;56.232;43.944;2023-08-01T10:00:22;9.43;;;3.85;;
69979;SDS011;57318;56.232;43.944;2023-08-01T10:02:47;6.85;;;3.95;;
69979;SDS011;57318;56.232;43.944;2023-08-01T10:05:15;7.00;;;4.20;;
69979;SDS011;57318;56.232;43.944;2023-08-01T10:07:43;5.47;;;3.70;;
69979;SDS011;57318;56.232;43.944;2023-08-01T10:10:10;4.28;;;3.88;;
69979;SDS011;57318;56.232;43.944;2023-08-01T10:12:37;4.70;;;3.60;;
69979;SDS011;57318;56.232;43.944;2023-08-01T10:15:04;8.90;;;4.22;;
69979;SDS011;57318;56.232;43.944;2023-08-01T10:17:33;4.93;;;3.78;;
69979;SDS011;57318;56.232;43.944;2023-08-01T10:20:01;7.70;;;4.45;;
69979;SDS011;57318;56.232;43.944;2023-08-01T10:22:29;5.07;;;3.72;;
69979;SDS011;57318;56.232;43.944;2023-08-01T10:24:57;16.83;;;4.78;;
69979;SDS011;57318;56.232;43.944;2023-08-01T10:27:23;8.40;;;3.80;;
69979;SDS011;57318;56.232;43.944;2023-08-01T10:29:58;3.80;;;3.50;;
69979;SDS011;57318;56.232;43.944;2023-08-01T10:32:43;6.95;;;3.75;;
69979;SDS011;57318;56.232;43.944;2023-08-01T10:35:09;5.72;;;4.43;;
69979;SDS011;57318;56.232;43.944;2023-08-01T10:37:41;4.30;;;3.53;;
69979;SDS011;57318;56.232;43.944;2023-08-01T10:40:12;5.75;;;3.85;;
69979;SDS011;57318;56.232;43.944;2023-08-01T10:42:47;4.47;;;4.03;;
69979;SDS011;57318;56.232;43.944;2023-08-01T10:45:22;4.50;;;4.10;;
69979;SDS011;57318;56.232;43.944;2023-08-01T10:47:49;4.22;;;3.65;;
69979;SDS011;57318;56.232;43.944;2023-08-01T10:50:15;13.13;;;4.40;;
69979;SDS011;57318;56.232;43.944;2023-08-01T10:52:42;5.43;;;3.75;;
69979;SDS011;57318;56.232;43.944;2023-08-01T10:55:09;5.57;;;3.70;;
69979;SDS011;57318;56.232;43.944;2023-08-01T10:57:36;8.18;;;3.30;;
69979;SDS011;57318;56.232;43.944;2023-08-01T11:00:05;3.70;;;3.22;;
69979;SDS011;57318;56.232;43.944;2023-08-01T11:02:37;5.05;;;3.15;;
69979;SDS011;57318;56.232;43.944;2023-08-01T11:05:06;7.78;;;3.47;;
69979;SDS011;57318;56.232;43.944;2023-08-01T11:07:33;5.57;;;3.35;;
69979;SDS011;57318;56.232;43.944;2023-08-01T11:12:41;6.38;;;3.58;;
69979;SDS011;57318;56.232;43.944;2023-08-01T11:15:14;6.10;;;3.70;;
69979;SDS011;57318;56.232;43.944;2023-08-01T11:17:41;6.80;;;4.30;;
69979;SDS011;57318;56.232;43.944;2023-08-01T11:20:11;7.03;;;3.60;;
69979;SDS011;57318;56.232;43.944;2023-08-01T11:22:48;3.92;;;3.53;;
69979;SDS011;57318;56.232;43.944;2023-08-01T11:25:17;7.22;;;4.13;;
69979;SDS011;57318;56.232;43.944;2023-08-01T11:27:45;11.27;;;4.32;;
69979;SDS011;57318;56.232;43.944;2023-08-01T11:30:11;3.38;;;3.03;;
69979;SDS011;57318;56.232;43.944;2023-08-01T11:32:38;9.23;;;3.72;;
69979;SDS011;57318;56.232;43.944;2023-08-01T11:35:04;5.60;;;3.10;;
69979;SDS011;57318;56.232;43.944;2023-08-01T11:37:33;27.30;;;4.75;;
69979;SDS011;57318;56.232;43.944;2023-08-01T11:39:59;4.88;;;3.28;;
69979;SDS011;57318;56.232;43.944;2023-08-01T11:42:29;5.65;;;3.60;;
69979;SDS011;57318;56.232;43.944;2023-08-01T11:45:07;6.82;;;3.30;;
69979;SDS011;57318;56.232;43.944;2023-08-01T11:47:33;3.50;;;3.20;;
69979;SDS011;57318;56.232;43.944;2023-08-01T11:49:59;4.15;;;3.70;;
69979;SDS011;57318;56.232;43.944;2023-08-01T11:52:25;5.10;;;3.13;;
69979;SDS011;57318;56.232;43.944;2023-08-01T11:54:53;4.20;;;3.08;;
69979;SDS011;57318;56.232;43.944;2023-08-01T11:57:22;5.57;;;3.25;;
69979;SDS011;57318;56.232;43.944;2023-08-01T11:59:48;5.20;;;3.30;;
69979;SDS011;57318;56.232;43.944;2023-08-01T12:02:23;3.78;;;2.90;;
69979;SDS011;57318;56.232;43.944;2023-08-01T12:04:55;3.67;;;3.05;;
69979;SDS011;57318;56.232;43.944;2023-08-01T12:07:24;4.70;;;3.08;;
69979;SDS011;57318;56.232;43.944;2023-08-01T12:09:57;3.25;;;2.97;;
69979;SDS011;57318;56.232;43.944;2023-08-01T12:12:26;3.65;;;2.80;;
69979;SDS011;57318;56.232;43.944;2023-08-01T12:14:53;3.10;;;2.70;;
69979;SDS011;57318;56.232;43.944;2023-08-01T12:17:19;3.65;;;2.78;;
69979;SDS011;57318;56.232;43.944;2023-08-01T12:19:45;3.53;;;2.67;;
69979;SDS011;57318;56.232;43.944;2023-08-01T12:22:11;4.13;;;2.90;;
69979;SDS011;57318;56.232;43.944;2023-08-01T12:24:38;6.20;;;3.10;;
69979;SDS011;57318;56.232;43.944;2023-08-01T12:27:07;4.35;;;3.63;;
69979;SDS011;57318;56.232;43.944;2023-08-01T12:29:34;5.13;;;3.80;;
69979;SDS011;57318;56.232;43.944;2023-08-01T12:32:01;4.95;;;3.25;;
69979;SDS011;57318;56.232;43.944;2023-08-01T12:34:28;3.72;;;3.38;;
69979;SDS011;57318;56.232;43.944;2023-08-01T12:36:53;3.47;;;3.17;;
69979;SDS011;57318;56.232;43.944;2023-08-01T12:39:19;4.63;;;3.55;;
69979;SDS011;57318;56.232;43.944;2023-08-01T12:41:45;5.63;;;3.65;;
69979;SDS011;57318;56.232;43.944;2023-08-01T12:44:10;7.38;;;3.70;;
69979;SDS011;57318;56.232;43.944;2023-08-01T12:46:37;3.80;;;3.47;;
69979;SDS011;57318;56.232;43.944;2023-08-01T12:49:04;3.95;;;3.30;;
69979;SDS011;57318;56.232;43.944;2023-08-01T12:51:30;4.72;;;3.20;;
69979;SDS011;57318;56.232;43.944;2023-08-01T12:53:55;4.40;;;3.13;;
69979;SDS011;57318;56.232;43.944;2023-08-01T12:56:21;4.10;;;3.28;;
69979;SDS011;57318;56.232;43.944;2023-08-01T12:58:47;3.38;;;2.97;;
69979;SDS011;57318;56.232;43.944;2023-08-01T13:01:12;3.45;;;2.92;;
69979;SDS011;57318;56.232;43.944;2023-08-01T13:03:38;10.68;;;3.28;;
69979;SDS011;57318;56.232;43.944;2023-08-01T13:06:04;3.38;;;2.92;;
69979;SDS011;57318;56.232;43.944;2023-08-01T13:08:30;4.07;;;3.20;;
69979;SDS011;57318;56.232;43.944;2023-08-01T13:10:55;4.32;;;3.20;;
69979;SDS011;57318;56.232;43.944;2023-08-01T13:13:21;5.07;;;3.20;;
69979;SDS011;57318;56.232;43.944;2023-08-01T13:18:13;3.65;;;3.25;;
69979;SDS011;57318;56.232;43.944;2023-08-01T13:20:39;3.60;;;3.30;;
69979;SDS011;57318;56.232;43.944;2023-08-01T13:25:30;3.95;;;3.33;;
69979;SDS011;57318;56.232;43.944;2023-08-01T13:27:56;4.40;;;3.10;;
69979;SDS011;57318;56.232;43.944;2023-08-01T13:30:22;3.83;;;3.38;;
69979;SDS011;57318;56.232;43.944;2023-08-01T13:32:47;3.35;;;2.97;;
69979;SDS011;57318;56.232;43.944;2023-08-01T13:35:13;4.55;;;3.00;;
69979;SDS011;57318;56.232;43.944;2023-08-01T13:37:40;4.60;;;3.45;;
69979;SDS011;57318;56.232;43.944;2023-08-01T13:40:06;4.47;;;3.13;;
69979;SDS011;57318;56.232;43.944;2023-08-01T13:42:32;7.30;;;3.63;;
69979;SDS011;57318;56.232;43.944;2023-08-01T13:44:58;3.42;;;3.13;;
69979;SDS011;57318;56.232;43.944;2023-08-01T13:47:25;4.82;;;3.28;;
69979;SDS011;57318;56.232;43.944;2023-08-01T13:52:16;7.00;;;3.25;;
69979;SDS011;57318;56.232;43.944;2023-08-01T13:57:08;4.80;;;3.50;;
69979;SDS011;57318;56.232;43.944;2023-08-01T13:59:33;4.72;;;3.83;;
69979;SDS011;57318;56.232;43.944;2023-08-01T14:02:00;14.45;;;3.83;;
69979;SDS011;57318;56.232;43.944;2023-08-01T14:04:25;8.05;;;3.72;;
69979;SDS011;57318;56.232;43.944;2023-08-01T14:06:52;16.10;;;4.65;;
69979;SDS011;57318;56.232;43.944;2023-08-01T14:09:18;12.55;;;4.43;;
69979;SDS011;57318;56.232;43.944;2023-08-01T14:11:43;35.13;;;6.25;;
69979;SDS011;57318;56.232;43.944;2023-08-01T14:14:09;13.05;;;3.97;;
69979;SDS011;57318;56.232;43.944;2023-08-01T14:16:35;10.27;;;3.83;;
69979;SDS011;57318;56.232;43.944;2023-08-01T14:21:26;16.08;;;4.45;;
69979;SDS011;57318;56.232;43.944;2023-08-01T14:26:17;5.30;;;3.28;;
69979;SDS011;57318;56.232;43.944;2023-08-01T14:28:43;11.20;;;4.30;;
69979;SDS011;57318;56.232;43.944;2023-08-01T14:31:09;8.13;;;3.33;;
69979;SDS011;57318;56.232;43.944;2023-08-01T14:33:34;4.60;;;3.45;;
69979;SDS011;57318;56.232;43.944;2023-08-01T14:36:00;4.13;;;3.22;;
69979;SDS011;57318;56.232;43.944;2023-08-01T14:38:27;3.72;;;3.35;;
69979;SDS011;57318;56.232;43.944;2023-08-01T14:40:53;5.85;;;3.80;;
69979;SDS011;57318;56.232;43.944;2023-08-01T14:43:19;3.40;;;3.10;;
69979;SDS011;57318;56.232;43.944;2023-08-01T14:45:46;4.40;;;3.13;;
69979;SDS011;57318;56.232;43.944;2023-08-01T14:48:12;4.15;;;2.95;;